createdAt,value
2023-05-20T00:02:00.297Z,3.40
2023-05-20T00:04:28.336Z,3.57
2023-05-20T00:06:56.477Z,3.07
2023-05-20T00:09:24.727Z,3.07
2023-05-20T00:11:54.036Z,2.70
2023-05-20T00:14:22.141Z,2.67
2023-05-20T00:16:50.175Z,2.97
2023-05-20T00:19:18.365Z,3.20
2023-05-20T00:21:46.335Z,3.03
2023-05-20T00:24:14.320Z,3.27
2023-05-20T00:26:42.438Z,3.00
2023-05-20T00:29:11.819Z,3.10
2023-05-20T00:31:39.834Z,3.60
2023-05-20T00:34:07.779Z,2.97
2023-05-20T00:36:36.693Z,3.00
2023-05-20T00:39:04.764Z,3.00
2023-05-20T00:41:33.303Z,3.03
2023-05-20T00:44:01.233Z,3.40
2023-05-20T00:46:30.788Z,3.00
2023-05-20T00:48:59.115Z,3.70
2023-05-20T00:51:27.370Z,2.60
2023-05-20T00:53:56.204Z,3.53
2023-05-20T00:56:24.430Z,3.83
2023-05-20T00:58:52.689Z,3.50
2023-05-20T01:01:20.770Z,2.90
2023-05-20T01:03:50.134Z,3.20
2023-05-20T01:06:18.223Z,3.50
2023-05-20T01:08:46.239Z,3.53
2023-05-20T01:11:23.704Z,3.93
2023-05-20T01:13:56.409Z,3.57
2023-05-20T01:16:25.790Z,3.47
2023-05-20T01:18:57.454Z,3.27
2023-05-20T01:21:26.069Z,3.97
2023-05-20T01:23:55.662Z,3.60
2023-05-20T01:26:27.120Z,3.50
2023-05-20T01:28:57.840Z,3.63
2023-05-20T01:31:29.353Z,3.50
2023-05-20T01:33:59.101Z,3.70
2023-05-20T01:36:28.249Z,3.77
2023-05-20T01:38:58.646Z,4.47
2023-05-20T01:41:28.210Z,3.90
2023-05-20T01:43:56.788Z,3.93
2023-05-20T01:46:24.959Z,3.70
2023-05-20T01:48:52.999Z,4.07
2023-05-20T01:51:20.986Z,3.83
2023-05-20T01:53:48.999Z,3.23
2023-05-20T01:56:18.309Z,4.07
2023-05-20T01:58:46.330Z,4.07
2023-05-20T02:01:14.230Z,3.70
2023-05-20T02:03:42.209Z,3.90
2023-05-20T02:06:10.212Z,4.13
2023-05-20T02:08:38.957Z,4.23
2023-05-20T02:11:06.936Z,3.70
2023-05-20T02:14:22.901Z,4.30
2023-05-20T02:16:25.021Z,3.60
2023-05-20T02:18:53.243Z,4.50
2023-05-20T02:21:21.307Z,3.80
2023-05-20T02:23:49.230Z,3.57
2023-05-20T02:26:17.424Z,4.37
2023-05-20T02:28:50.504Z,4.50
2023-05-20T02:31:18.768Z,4.70
2023-05-20T02:33:46.961Z,4.23
2023-05-20T02:36:15.239Z,3.83
2023-05-20T02:38:43.172Z,4.87
2023-05-20T02:41:11.422Z,3.80
2023-05-20T02:43:40.690Z,3.93
2023-05-20T02:46:10.040Z,3.40
2023-05-20T02:48:37.962Z,4.80
2023-05-20T02:51:07.188Z,4.87
2023-05-20T02:53:35.146Z,4.13
2023-05-20T02:56:04.388Z,4.23
2023-05-20T02:58:33.255Z,4.50
2023-05-20T03:01:01.218Z,4.50
2023-05-20T03:03:30.888Z,3.90
2023-05-20T03:05:58.833Z,4.90
2023-05-20T03:08:27.060Z,4.47
2023-05-20T03:10:54.967Z,5.30
2023-05-20T03:13:22.965Z,4.70
2023-05-20T03:15:51.389Z,4.80
2023-05-20T03:18:19.392Z,5.43
2023-05-20T03:20:48.683Z,4.10
2023-05-20T03:23:16.636Z,5.37
2023-05-20T03:25:44.625Z,4.70
2023-05-20T03:28:12.886Z,4.63
2023-05-20T03:30:40.980Z,4.80
2023-05-20T03:33:08.994Z,4.97
2023-05-20T03:35:37.215Z,5.17
2023-05-20T03:38:06.787Z,5.30
2023-05-20T03:40:34.830Z,5.37
2023-05-20T03:43:02.778Z,4.80
2023-05-20T03:45:30.716Z,4.80
2023-05-20T03:47:58.670Z,5.10
2023-05-20T03:50:26.703Z,4.87
2023-05-20T03:52:54.646Z,4.97
2023-05-20T03:55:24.990Z,4.33
2023-05-20T03:57:52.986Z,4.60
2023-05-20T04:00:20.920Z,5.07
2023-05-20T04:02:49.236Z,5.03
2023-05-20T04:05:17.388Z,5.70
2023-05-20T04:07:45.398Z,5.50
2023-05-20T04:10:13.577Z,5.30
2023-05-20T04:12:43.533Z,4.50
2023-05-20T04:15:12.825Z,5.13
2023-05-20T04:17:40.872Z,4.77
2023-05-20T04:20:11.326Z,5.90
2023-05-20T04:22:39.524Z,4.87
2023-05-20T04:25:08.337Z,4.80
2023-05-20T04:27:37.624Z,5.63
2023-05-20T04:30:08.356Z,5.47
2023-05-20T04:32:36.382Z,5.67
2023-05-20T04:35:07.758Z,5.40
2023-05-20T04:37:37.476Z,5.17
2023-05-20T04:40:07.218Z,4.90
2023-05-20T04:42:35.303Z,5.10
2023-05-20T04:45:05.703Z,6.10
2023-05-20T04:47:38.748Z,5.13
2023-05-20T04:50:10.599Z,4.30
2023-05-20T04:52:39.167Z,5.67
2023-05-20T04:55:09.776Z,5.40
2023-05-20T04:57:41.620Z,4.90
2023-05-20T05:00:10.847Z,4.90
2023-05-20T05:02:40.390Z,5.23
2023-05-20T05:05:09.336Z,5.30
2023-05-20T05:07:37.396Z,5.00
2023-05-20T05:10:05.685Z,4.77
2023-05-20T05:12:33.668Z,4.80
2023-05-20T05:15:01.936Z,4.83
2023-05-20T05:17:29.950Z,5.50
2023-05-20T05:19:59.263Z,5.57
2023-05-20T05:22:27.169Z,4.93
2023-05-20T05:24:55.894Z,4.50
2023-05-20T05:31:05.395Z,5.22
2023-05-20T05:33:33.543Z,5.07
2023-05-20T05:36:03.153Z,6.00
2023-05-20T05:38:31.199Z,5.50
2023-05-20T05:41:48.820Z,4.57
2023-05-20T05:44:16.898Z,4.60
2023-05-20T05:46:45.409Z,4.55
2023-05-20T05:49:13.423Z,5.00
2023-05-20T05:51:42.822Z,5.35
2023-05-20T05:54:10.926Z,5.43
2023-05-20T05:56:38.956Z,5.13
2023-05-20T05:59:07.003Z,4.40
2023-05-20T06:01:35.229Z,4.95
2023-05-20T06:04:03.440Z,5.57
2023-05-20T06:06:32.437Z,6.03
2023-05-20T06:09:01.780Z,5.75
2023-05-20T06:11:29.803Z,6.05
2023-05-20T06:13:57.802Z,5.35
2023-05-20T06:16:26.104Z,5.80
2023-05-20T06:18:57.231Z,4.75
2023-05-20T06:21:25.260Z,4.85
2023-05-20T06:23:53.208Z,5.13
2023-05-20T06:26:22.789Z,4.55
2023-05-20T06:28:51.290Z,4.78
2023-05-20T06:31:22.313Z,5.18
2023-05-20T06:33:50.520Z,5.18
2023-05-20T06:36:19.049Z,5.72
2023-05-20T06:38:46.961Z,5.05
2023-05-20T06:41:14.991Z,6.00
2023-05-20T06:43:44.251Z,6.18
2023-05-20T06:46:12.326Z,5.50
2023-05-20T06:48:40.631Z,10.13
2023-05-20T06:51:09.414Z,6.65
2023-05-20T06:53:37.674Z,5.03
2023-05-20T06:56:05.957Z,4.78
2023-05-20T06:58:34.356Z,4.93
2023-05-20T07:01:03.632Z,5.45
2023-05-20T07:03:32.028Z,5.40
2023-05-20T07:06:00.114Z,5.20
2023-05-20T07:08:28.127Z,5.28
2023-05-20T07:10:57.103Z,5.45
2023-05-20T07:13:26.192Z,5.20
2023-05-20T07:15:54.373Z,4.82
2023-05-20T07:18:23.761Z,5.03
2023-05-20T07:20:51.715Z,5.15
2023-05-20T07:23:19.703Z,4.88
2023-05-20T07:26:39.909Z,5.15
2023-05-20T07:29:08.185Z,4.78
2023-05-20T07:31:36.229Z,5.30
2023-05-20T07:34:05.947Z,5.18
2023-05-20T07:36:33.938Z,4.60
2023-05-20T07:39:04.717Z,5.50
2023-05-20T07:41:35.219Z,5.90
2023-05-20T07:44:04.052Z,5.10
2023-05-20T07:46:32.128Z,5.60
2023-05-20T07:49:00.330Z,5.20
2023-05-20T07:51:29.721Z,4.55
2023-05-20T07:53:57.766Z,5.53
2023-05-20T07:56:25.845Z,5.80
2023-05-20T07:58:54.690Z,5.57
2023-05-20T08:01:22.703Z,5.22
2023-05-20T08:03:50.997Z,5.70
2023-05-20T08:06:20.661Z,5.50
2023-05-20T08:08:50.142Z,5.25
2023-05-20T08:11:18.096Z,5.63
2023-05-20T08:13:46.098Z,5.40
2023-05-20T08:16:14.151Z,6.10
2023-05-20T08:18:42.217Z,5.10
2023-05-20T08:21:10.486Z,4.90
2023-05-20T08:23:40.520Z,4.93
2023-05-20T08:26:10.015Z,4.32
2023-05-20T08:28:38.257Z,5.10
2023-05-20T08:31:06.639Z,5.10
2023-05-20T08:33:34.676Z,4.70
2023-05-20T08:36:02.722Z,5.13
2023-05-20T08:38:30.719Z,4.57
2023-05-20T08:40:58.968Z,5.10
2023-05-20T08:43:28.378Z,5.72
2023-05-20T08:45:57.092Z,5.55
2023-05-20T08:48:27.888Z,5.35
2023-05-20T08:50:59.288Z,5.65
2023-05-20T08:53:27.987Z,5.78
2023-05-20T08:56:00.844Z,5.68
2023-05-20T08:58:31.348Z,5.40
2023-05-20T09:00:59.875Z,5.88
2023-05-20T09:03:28.147Z,4.75
2023-05-20T09:06:05.751Z,4.80
2023-05-20T09:08:34.880Z,4.13
2023-05-20T09:11:03.163Z,5.65
2023-05-20T09:13:34.124Z,7.03
2023-05-20T09:16:03.641Z,4.90
2023-05-20T09:18:32.091Z,5.35
2023-05-20T09:21:05.730Z,4.53
2023-05-20T09:23:33.882Z,5.68
2023-05-20T09:26:03.296Z,5.60
2023-05-20T09:28:32.879Z,5.00
2023-05-20T09:31:02.254Z,5.18
2023-05-20T09:33:32.094Z,5.97
2023-05-20T09:36:09.883Z,6.28
2023-05-20T09:38:40.045Z,6.00
2023-05-20T09:41:11.800Z,5.63
2023-05-20T09:43:42.523Z,5.93
2023-05-20T09:46:10.978Z,5.45
2023-05-20T09:48:39.871Z,4.97
2023-05-20T09:51:08.451Z,5.00
2023-05-20T09:53:37.690Z,5.10
2023-05-20T09:56:06.435Z,5.38
2023-05-20T09:58:36.676Z,5.53
2023-05-20T10:01:07.654Z,5.97
2023-05-20T10:03:36.133Z,5.45
2023-05-20T10:06:21.930Z,5.70
2023-05-20T10:09:04.353Z,5.97
2023-05-20T10:11:43.494Z,6.25
2023-05-20T10:14:28.330Z,6.95
2023-05-20T10:17:10.118Z,5.63
2023-05-20T10:19:38.778Z,6.18
2023-05-20T10:22:09.995Z,5.00
2023-05-20T10:24:40.913Z,5.30
2023-05-20T10:27:11.428Z,5.20
2023-05-20T10:29:58.357Z,5.65
2023-05-20T10:32:28.880Z,5.50
2023-05-20T10:35:01.104Z,4.95
2023-05-20T10:37:30.147Z,5.40
2023-05-20T10:40:09.172Z,5.28
2023-05-20T10:42:37.126Z,5.07
2023-05-20T10:45:06.153Z,5.13
2023-05-20T10:47:36.215Z,5.25
2023-05-20T10:50:05.996Z,5.80
2023-05-20T10:52:35.254Z,4.90
2023-05-20T10:55:05.053Z,6.20
2023-05-20T10:57:33.290Z,5.60
2023-05-20T11:00:02.108Z,5.35
2023-05-20T11:02:30.565Z,5.32
2023-05-20T11:05:00.064Z,6.20
2023-05-20T11:07:29.104Z,5.63
2023-05-20T11:09:57.521Z,5.93
2023-05-20T11:12:27.062Z,5.75
2023-05-20T11:14:55.690Z,5.75
2023-05-20T11:17:23.933Z,5.60
2023-05-20T11:19:52.069Z,5.90
2023-05-20T11:22:21.836Z,5.68
2023-05-20T11:24:49.857Z,5.97
2023-05-20T11:27:17.815Z,5.60
2023-05-20T11:29:46.525Z,6.10
2023-05-20T11:32:14.487Z,6.30
2023-05-20T11:34:42.680Z,6.93
2023-05-20T11:37:11.914Z,6.00
2023-05-20T11:39:41.336Z,6.28
2023-05-20T11:42:09.316Z,6.40
2023-05-20T11:44:37.462Z,5.68
2023-05-20T11:47:05.683Z,6.43
2023-05-20T11:49:40.792Z,6.35
2023-05-20T11:52:10.376Z,6.82
2023-05-20T11:54:38.384Z,7.00
2023-05-20T11:57:08.032Z,6.45
2023-05-20T11:59:37.009Z,6.90
2023-05-20T12:02:05.036Z,7.47
2023-05-20T12:04:33.117Z,6.47
2023-05-20T12:07:01.173Z,6.70
2023-05-20T12:09:29.152Z,6.93
2023-05-20T12:11:57.355Z,7.50
2023-05-20T12:14:26.687Z,6.97
2023-05-20T12:16:54.699Z,7.55
2023-05-20T12:19:22.673Z,5.85
2023-05-20T12:21:50.692Z,7.03
2023-05-20T12:24:18.677Z,7.88
2023-05-20T12:26:46.588Z,5.82
2023-05-20T12:29:14.549Z,6.50
2023-05-20T12:31:43.842Z,5.68
2023-05-20T12:34:11.879Z,6.72
2023-05-20T12:36:39.969Z,7.22
2023-05-20T12:39:09.416Z,7.00
2023-05-20T12:41:37.384Z,6.72
2023-05-20T12:44:05.399Z,6.80
2023-05-20T12:46:33.387Z,8.63
2023-05-20T12:49:03.049Z,6.22
2023-05-20T12:51:31.130Z,5.57
2023-05-20T12:53:59.100Z,5.63
2023-05-20T12:56:27.490Z,6.93
2023-05-20T12:58:55.488Z,7.25
2023-05-20T13:01:23.479Z,6.60
2023-05-20T13:03:53.388Z,6.20
2023-05-20T13:06:22.761Z,5.63
2023-05-20T13:08:50.871Z,6.22
2023-05-20T13:11:18.790Z,6.78
2023-05-20T13:13:46.814Z,7.45
2023-05-20T13:16:16.670Z,6.70
2023-05-20T13:18:44.734Z,7.40
2023-05-20T13:21:12.748Z,6.77
2023-05-20T13:23:42.910Z,7.00
2023-05-20T13:26:11.050Z,6.75
2023-05-20T13:28:39.048Z,6.63
2023-05-20T13:31:07.798Z,7.05
2023-05-20T13:33:36.009Z,6.82
2023-05-20T13:36:04.033Z,4.85
2023-05-20T13:38:32.071Z,6.20
2023-05-20T13:41:01.370Z,7.28
2023-05-20T13:43:29.601Z,7.03
2023-05-20T13:45:57.620Z,6.22
2023-05-20T13:48:25.576Z,5.50
2023-05-20T13:50:53.536Z,6.72
2023-05-20T13:53:21.403Z,7.30
2023-05-20T13:55:49.311Z,6.80
2023-05-20T13:58:18.563Z,6.47
2023-05-20T14:00:47.145Z,6.43
2023-05-20T14:03:15.232Z,6.05
2023-05-20T14:05:43.378Z,6.20
2023-05-20T14:08:11.376Z,6.22
2023-05-20T14:10:39.410Z,6.28
2023-05-20T14:13:08.881Z,6.35
2023-05-20T14:15:38.430Z,6.75
2023-05-20T14:18:06.486Z,6.85
2023-05-20T14:20:34.688Z,6.30
2023-05-20T14:23:02.752Z,6.15
2023-05-20T14:25:30.639Z,5.70
2023-05-20T14:27:58.815Z,6.22
2023-05-20T14:30:27.036Z,6.65
2023-05-20T14:32:56.411Z,6.13
2023-05-20T14:35:24.463Z,5.18
2023-05-20T14:37:53.552Z,5.45
2023-05-20T14:40:21.665Z,5.90
2023-05-20T14:42:49.655Z,5.72
2023-05-20T14:45:17.785Z,5.40
2023-05-20T14:47:46.125Z,6.45
2023-05-20T14:50:15.466Z,5.68
2023-05-20T14:52:43.633Z,5.75
2023-05-20T14:55:11.634Z,4.40
2023-05-20T14:57:39.649Z,6.20
2023-05-20T15:00:08.896Z,5.38
2023-05-20T15:02:36.956Z,5.18
2023-05-20T15:05:05.243Z,5.00
2023-05-20T15:07:34.665Z,5.53
2023-05-20T15:10:05.863Z,5.50
2023-05-20T15:12:33.969Z,5.55
2023-05-20T15:15:01.929Z,5.43
2023-05-20T15:17:30.128Z,5.25
2023-05-20T15:19:58.207Z,4.95
2023-05-20T15:22:26.259Z,5.60
2023-05-20T15:24:55.568Z,4.78
2023-05-20T15:27:23.537Z,5.55
2023-05-20T15:29:51.561Z,5.10
2023-05-20T15:32:20.037Z,4.53
2023-05-20T15:34:48.339Z,6.50
2023-05-20T15:37:16.328Z,4.05
2023-05-20T15:39:44.775Z,5.82
2023-05-20T15:42:18.613Z,5.50
2023-05-20T15:44:47.101Z,8.57
2023-05-20T15:47:15.104Z,5.47
2023-05-20T15:49:43.181Z,5.00
2023-05-20T15:52:11.133Z,5.85
2023-05-20T15:54:39.895Z,5.50
2023-05-20T15:57:07.914Z,3.50
2023-05-20T15:59:37.403Z,5.53
2023-05-20T16:02:05.670Z,5.57
2023-05-20T16:04:33.817Z,6.45
2023-05-20T16:07:01.913Z,6.38
2023-05-20T16:09:30.209Z,4.35
2023-05-20T16:11:58.309Z,5.60
2023-05-20T16:14:26.411Z,6.10
2023-05-20T16:16:55.920Z,6.43
2023-05-20T16:19:24.008Z,5.70
2023-05-20T16:21:51.967Z,6.28
2023-05-20T16:24:19.958Z,6.20
2023-05-20T16:26:48.073Z,6.15
2023-05-20T16:29:16.759Z,6.38
2023-05-20T16:31:46.817Z,7.30
2023-05-20T16:34:17.014Z,6.45
2023-05-20T16:36:46.442Z,5.97
2023-05-20T16:39:14.767Z,6.65
2023-05-20T16:41:43.026Z,7.30
2023-05-20T16:44:11.449Z,5.72
2023-05-20T16:46:39.496Z,6.18
2023-05-20T16:49:07.666Z,5.50
2023-05-20T16:51:37.092Z,7.13
2023-05-20T16:54:05.174Z,5.50
2023-05-20T16:56:35.308Z,5.72
2023-05-20T16:59:03.586Z,7.07
2023-05-20T17:01:32.182Z,5.82
2023-05-20T17:04:00.342Z,7.32
2023-05-20T17:06:28.422Z,4.90
2023-05-20T17:08:57.813Z,7.78
2023-05-20T17:11:26.063Z,8.45
2023-05-20T17:13:54.098Z,7.00
2023-05-20T17:16:22.356Z,6.15
2023-05-20T17:18:50.472Z,6.72
2023-05-20T17:21:21.448Z,5.95
2023-05-20T17:23:49.608Z,8.63
2023-05-20T17:26:19.118Z,7.32
2023-05-20T17:28:47.130Z,7.60
2023-05-20T17:31:15.366Z,8.10
2023-05-20T17:33:43.503Z,7.30
2023-05-20T17:36:11.677Z,5.97
2023-05-20T17:38:39.679Z,6.33
2023-05-20T17:41:07.657Z,6.10
2023-05-20T17:43:37.113Z,6.70
2023-05-20T17:46:05.690Z,5.27
2023-05-20T17:48:34.019Z,5.77
2023-05-20T17:51:02.082Z,7.03
2023-05-20T17:53:30.051Z,5.47
2023-05-20T17:55:58.229Z,6.07
2023-05-20T17:58:27.238Z,6.70
2023-05-20T18:00:56.737Z,6.70
2023-05-20T18:03:24.949Z,6.17
2023-05-20T18:05:55.699Z,5.50
2023-05-20T18:08:25.406Z,5.90
2023-05-20T18:10:53.897Z,6.30
2023-05-20T18:13:22.004Z,4.90
2023-05-20T18:15:50.248Z,6.13
2023-05-20T18:18:19.792Z,6.67
2023-05-20T18:20:47.883Z,6.83
2023-05-20T18:23:16.045Z,6.43
2023-05-20T18:25:44.095Z,5.80
2023-05-20T18:28:13.408Z,5.67
2023-05-20T18:30:41.662Z,6.30
2023-05-20T18:33:09.780Z,6.90
2023-05-20T18:35:39.786Z,4.70
2023-05-20T18:38:08.203Z,6.37
2023-05-20T18:40:36.338Z,6.50
2023-05-20T18:43:04.653Z,6.30
2023-05-20T18:45:32.567Z,6.10
2023-05-20T18:48:00.725Z,6.03
2023-05-20T18:50:28.829Z,5.83
2023-05-20T18:52:58.407Z,6.70
2023-05-20T18:55:26.550Z,6.23
2023-05-20T18:57:54.491Z,6.20
2023-05-20T19:00:22.580Z,7.27
2023-05-20T19:02:50.599Z,6.47
2023-05-20T19:05:19.915Z,6.87
2023-05-20T19:07:47.931Z,6.63
2023-05-20T19:10:17.440Z,7.77
2023-05-20T19:12:45.445Z,7.30
2023-05-20T19:15:13.594Z,6.50
2023-05-20T19:17:41.664Z,7.30
2023-05-20T19:20:10.621Z,7.63
2023-05-20T19:22:39.609Z,8.10
2023-05-20T19:25:08.093Z,8.67
2023-05-20T19:27:37.452Z,7.90
2023-05-20T19:30:07.903Z,7.60
2023-05-20T19:32:38.040Z,6.77
2023-05-20T19:35:07.347Z,6.53
2023-05-20T19:37:35.565Z,6.37
2023-05-20T19:40:03.732Z,6.63
2023-05-20T19:42:31.689Z,6.37
2023-05-20T19:45:01.038Z,7.67
2023-05-20T19:47:29.069Z,6.93
2023-05-20T19:49:57.095Z,6.27
2023-05-20T19:52:25.063Z,6.90
2023-05-20T19:54:53.024Z,6.70
2023-05-20T19:57:20.986Z,6.57
2023-05-20T19:59:50.133Z,7.20
2023-05-20T20:02:20.336Z,7.50
2023-05-20T20:04:48.570Z,7.27
2023-05-20T20:07:16.624Z,6.90
2023-05-20T20:09:45.072Z,7.03
2023-05-20T20:12:13.061Z,6.40
2023-05-20T20:14:41.219Z,7.53
2023-05-20T20:17:13.546Z,8.50
2023-05-20T20:19:46.126Z,7.40
2023-05-20T20:22:14.161Z,8.30
2023-05-20T20:24:42.285Z,6.70
2023-05-20T20:27:10.541Z,8.33
2023-05-20T20:29:39.322Z,7.50
2023-05-20T20:32:07.860Z,8.13
2023-05-20T20:34:35.898Z,8.33
2023-05-20T20:37:06.989Z,8.30
2023-05-20T20:39:37.256Z,7.53
2023-05-20T20:42:05.660Z,9.10
2023-05-20T20:44:33.788Z,7.93
2023-05-20T20:47:04.083Z,8.43
2023-05-20T20:49:33.237Z,8.20
2023-05-20T20:52:01.233Z,8.53
2023-05-20T20:54:32.877Z,8.10
2023-05-20T20:57:02.799Z,8.77
2023-05-20T20:59:30.950Z,7.70
2023-05-20T21:01:59.038Z,8.17
2023-05-20T21:04:28.048Z,7.30
2023-05-20T21:06:56.131Z,8.07
2023-05-20T21:09:24.208Z,9.07
2023-05-20T21:11:53.638Z,8.50
2023-05-20T21:14:21.751Z,8.10
2023-05-20T21:16:49.833Z,8.57
2023-05-20T21:19:17.883Z,7.20
2023-05-20T21:21:45.929Z,7.30
2023-05-20T21:24:13.901Z,8.93
2023-05-20T21:26:41.958Z,7.87
2023-05-20T21:29:12.162Z,7.40
2023-05-20T21:31:40.355Z,7.10
2023-05-20T21:34:08.340Z,7.17
2023-05-20T21:36:36.412Z,8.27
2023-05-20T21:39:04.546Z,6.90
2023-05-20T21:41:32.533Z,6.70
2023-05-20T21:44:00.639Z,8.07
2023-05-20T21:46:30.137Z,7.07
2023-05-20T21:48:58.086Z,7.70
2023-05-20T21:51:26.149Z,8.07
2023-05-20T21:53:54.173Z,9.10
2023-05-20T21:56:22.694Z,7.80
2023-05-20T21:58:50.868Z,8.50
2023-05-20T22:01:19.026Z,8.07
2023-05-20T22:03:51.718Z,8.47
2023-05-20T22:06:21.450Z,8.80
2023-05-20T22:08:50.075Z,7.53
2023-05-20T22:11:18.093Z,8.30
2023-05-20T22:13:46.150Z,9.73
2023-05-20T22:16:14.324Z,7.83
2023-05-20T22:18:42.820Z,8.30
2023-05-20T22:21:12.641Z,8.40
2023-05-20T22:23:41.774Z,8.70
2023-05-20T22:26:09.900Z,9.67
2023-05-20T22:28:37.961Z,8.00
2023-05-20T22:31:06.330Z,8.57
2023-05-20T22:33:34.351Z,9.23
2023-05-20T22:36:02.361Z,8.80
2023-05-20T22:38:31.730Z,8.63
2023-05-20T22:40:59.732Z,9.00
2023-05-20T22:43:27.656Z,8.80
2023-05-20T22:45:55.639Z,8.03
2023-05-20T22:48:23.869Z,8.47
2023-05-20T22:50:54.043Z,8.23
2023-05-20T22:53:22.067Z,9.50
2023-05-20T22:55:51.432Z,8.17
2023-05-20T22:58:19.574Z,9.07
2023-05-20T23:00:47.543Z,8.47
2023-05-20T23:03:15.965Z,8.00
2023-05-20T23:05:43.966Z,9.33
2023-05-20T23:08:11.954Z,8.60
2023-05-20T23:10:39.923Z,8.53
2023-05-20T23:13:09.293Z,7.20
2023-05-20T23:15:37.662Z,8.23
2023-05-20T23:18:05.867Z,9.97
2023-05-20T23:20:33.826Z,8.97
2023-05-20T23:23:10.505Z,8.40
2023-05-20T23:25:39.367Z,8.17
2023-05-20T23:28:08.925Z,8.87
2023-05-20T23:30:37.089Z,8.30
2023-05-20T23:33:05.606Z,8.60
2023-05-20T23:35:34.019Z,7.80
2023-05-20T23:38:02.260Z,7.60
2023-05-20T23:40:30.214Z,8.03
2023-05-20T23:42:58.180Z,8.40
2023-05-20T23:45:28.566Z,8.97
2023-05-20T23:47:56.686Z,8.83
2023-05-20T23:50:24.601Z,8.40
2023-05-20T23:52:52.528Z,8.33
2023-05-20T23:55:20.771Z,7.70
2023-05-20T23:57:49.822Z,7.33
